Terminal Aerodrome Forecast
Issued by NWS Chicago, IL

Home | Current Version | Previous Version | Graphics & Text | Print | Product List | Glossary On
Versions: 1 2 3 4 5 6 7 8 9 10 11 12 13 14 15 16 17 18 19 20 21 22 23 24
000
FTUS43 KLOT 132336
TAFRFD
TAF
KRFD 132336Z 1400/1424 34020G30KT P6SM OVC020
     FM140200 35015G25KT P6SM -SN OVC020
     FM140800 34010KT P6SM FEW025 SCT250
     FM141600 30006KT P6SM SCT250
     FM142200 23005KT P6SM BKN060=

USA.gov is the U.S. government's official web portal to all federal, state and local government web resources and services.